createdAt,value
2022-08-07T00:01:00.032Z,60.18
2022-08-07T00:04:16.136Z,60.55
2022-08-07T00:07:18.925Z,60.65
2022-08-07T00:10:27.095Z,60.70
2022-08-07T00:13:33.479Z,60.68
2022-08-07T00:16:43.435Z,60.84
2022-08-07T00:20:02.926Z,60.87
2022-08-07T00:23:09.191Z,60.93
2022-08-07T00:26:48.627Z,61.23
2022-08-07T00:29:37.171Z,61.16
2022-08-07T00:32:40.011Z,61.00
2022-08-07T00:35:46.513Z,61.24
2022-08-07T00:38:52.222Z,61.26
2022-08-07T00:42:01.962Z,61.40
2022-08-07T00:45:08.887Z,61.54
2022-08-07T00:48:19.554Z,61.67
2022-08-07T00:51:57.127Z,61.61
2022-08-07T00:54:54.951Z,61.58
2022-08-07T00:57:57.752Z,61.88
2022-08-07T01:01:00.613Z,61.52
2022-08-07T01:04:08.283Z,61.62
2022-08-07T01:07:12.668Z,61.20
2022-08-07T01:10:17.146Z,61.33
2022-08-07T01:13:21.995Z,61.15
2022-08-07T01:16:29.994Z,60.88
2022-08-07T01:19:34.702Z,60.66
2022-08-07T01:22:47.045Z,60.74
2022-08-07T01:26:04.716Z,60.68
2022-08-07T01:29:07.557Z,61.02
2022-08-07T01:32:12.503Z,60.76
2022-08-07T01:35:17.288Z,60.68
2022-08-07T01:38:25.003Z,60.52
2022-08-07T01:41:30.362Z,60.38
2022-08-07T01:44:36.149Z,60.59
2022-08-07T01:48:19.519Z,60.41
2022-08-07T01:51:24.418Z,60.35
2022-08-07T01:54:36.819Z,60.42
2022-08-07T01:58:01.340Z,60.12
2022-08-07T02:01:59.381Z,60.29
2022-08-07T02:04:55.945Z,60.06
2022-08-07T02:08:03.590Z,60.43
2022-08-07T02:11:10.485Z,60.56
2022-08-07T02:14:40.819Z,60.36
2022-08-07T02:17:49.213Z,60.57
2022-08-07T02:20:57.367Z,60.74
2022-08-07T02:24:01.567Z,60.20
2022-08-07T02:27:05.410Z,60.59
2022-08-07T02:30:10.174Z,61.07
2022-08-07T02:33:14.274Z,60.91
2022-08-07T02:36:28.599Z,60.34
2022-08-07T02:39:43.368Z,60.66
2022-08-07T02:43:08.066Z,60.45
2022-08-07T02:46:11.688Z,60.68
2022-08-07T02:49:28.652Z,60.55
2022-08-07T02:53:06.107Z,60.41
2022-08-07T02:56:21.276Z,60.71
2022-08-07T02:59:27.567Z,60.39
2022-08-07T03:02:31.954Z,60.38
2022-08-07T03:05:37.807Z,60.43
2022-08-07T03:08:41.725Z,60.39
2022-08-07T03:11:52.684Z,60.27
2022-08-07T03:15:02.454Z,60.52
2022-08-07T03:18:12.017Z,60.15
2022-08-07T03:21:24.499Z,60.66
2022-08-07T03:24:28.323Z,60.70
2022-08-07T03:27:59.574Z,61.15
2022-08-07T03:31:15.783Z,61.30
2022-08-07T03:34:22.200Z,61.35
2022-08-07T03:37:27.636Z,61.83
2022-08-07T03:40:36.153Z,62.40
2022-08-07T03:43:39.906Z,62.54
2022-08-07T03:47:13.911Z,62.48
2022-08-07T03:50:23.447Z,63.20
2022-08-07T03:53:30.251Z,63.75
2022-08-07T03:57:03.909Z,63.67
2022-08-07T04:00:12.057Z,63.95
2022-08-07T04:03:18.954Z,63.96
2022-08-07T04:06:37.722Z,64.35
2022-08-07T04:09:50.167Z,64.33
2022-08-07T04:12:54.655Z,64.60
2022-08-07T04:15:58.685Z,65.21
2022-08-07T04:19:14.713Z,65.10
2022-08-07T04:22:22.862Z,65.24
2022-08-07T04:25:29.303Z,65.24
2022-08-07T04:28:33.159Z,65.08
2022-08-07T04:32:09.726Z,65.23
2022-08-07T04:35:05.737Z,65.16
2022-08-07T04:38:11.465Z,64.85
2022-08-07T04:41:19.148Z,65.12
2022-08-07T04:44:24.537Z,65.32
2022-08-07T04:48:03.875Z,64.99
2022-08-07T04:51:27.065Z,64.63
2022-08-07T04:55:14.933Z,64.50
2022-08-07T05:02:43.977Z,64.04
2022-08-07T05:06:16.304Z,63.64
2022-08-07T05:09:46.251Z,63.78
2022-08-07T05:12:58.371Z,64.06
2022-08-07T05:16:06.771Z,63.42
2022-08-07T05:19:15.756Z,63.53
2022-08-07T05:22:26.929Z,63.01
2022-08-07T05:25:36.631Z,62.18
2022-08-07T05:28:58.040Z,61.87
2022-08-07T05:32:02.005Z,61.01
2022-08-07T05:35:07.782Z,60.72
2022-08-07T05:38:11.272Z,60.62
2022-08-07T05:41:16.998Z,60.76
2022-08-07T05:44:29.445Z,59.49
2022-08-07T05:47:38.226Z,58.90
2022-08-07T05:51:01.201Z,58.58
2022-08-07T05:54:11.926Z,56.72
2022-08-07T05:57:30.374Z,55.42
2022-08-07T06:00:38.347Z,55.18
2022-08-07T06:03:53.762Z,55.36
2022-08-07T06:07:05.968Z,54.97
2022-08-07T06:10:11.242Z,55.32
2022-08-07T06:13:18.572Z,54.62
2022-08-07T06:16:24.252Z,54.45
2022-08-07T06:19:51.844Z,53.60
2022-08-07T06:23:24.616Z,53.35
2022-08-07T06:26:20.671Z,52.52
2022-08-07T06:29:28.144Z,52.15
2022-08-07T06:32:32.671Z,52.04
2022-08-07T06:35:45.662Z,52.34
2022-08-07T06:38:58.703Z,52.41
2022-08-07T06:42:43.792Z,51.61
2022-08-07T06:45:50.012Z,51.09
2022-08-07T06:48:53.045Z,50.73
2022-08-07T06:52:02.891Z,50.59
2022-08-07T06:55:33.048Z,50.76
2022-08-07T06:58:39.798Z,49.78
2022-08-07T07:02:03.274Z,49.74
2022-08-07T07:05:06.426Z,49.06
2022-08-07T07:08:12.459Z,48.70
2022-08-07T07:12:07.747Z,48.89
2022-08-07T07:15:09.068Z,47.95
2022-08-07T07:18:47.090Z,48.20
2022-08-07T07:22:05.410Z,47.94
2022-08-07T07:26:32.094Z,47.31
2022-08-07T07:29:38.609Z,47.86
2022-08-07T07:32:08.721Z,47.49
2022-08-07T07:35:12.389Z,46.94
2022-08-07T07:38:15.827Z,47.26
2022-08-07T07:41:22.079Z,47.61
2022-08-07T07:44:34.139Z,47.39
2022-08-07T07:47:52.158Z,48.01
2022-08-07T07:50:56.062Z,47.62
2022-08-07T07:53:59.840Z,46.95
2022-08-07T07:57:05.558Z,46.87
2022-08-07T08:00:09.412Z,46.79
2022-08-07T08:03:16.747Z,47.94
2022-08-07T08:06:48.139Z,47.51
2022-08-07T08:10:05.334Z,46.75
2022-08-07T08:13:10.664Z,46.89
2022-08-07T08:16:20.201Z,46.44
2022-08-07T08:20:18.886Z,47.44
2022-08-07T08:23:14.444Z,47.29
2022-08-07T08:26:36.946Z,46.81
2022-08-07T08:29:55.877Z,46.66
2022-08-07T08:33:01.557Z,46.37
2022-08-07T08:36:05.715Z,45.62
2022-08-07T08:39:10.711Z,45.80
2022-08-07T08:42:25.865Z,45.23
2022-08-07T08:45:58.312Z,44.61
2022-08-07T08:49:33.588Z,44.76
2022-08-07T08:52:54.415Z,43.41
2022-08-07T08:56:01.315Z,42.68
2022-08-07T08:59:16.674Z,43.09
2022-08-07T09:02:37.806Z,42.70
2022-08-07T09:05:52.210Z,42.28
2022-08-07T09:09:21.137Z,41.84
2022-08-07T09:12:41.815Z,41.44
2022-08-07T09:16:23.614Z,41.58
2022-08-07T09:19:56.630Z,42.12
2022-08-07T09:24:33.579Z,41.46
2022-08-07T09:26:47.750Z,41.22
2022-08-07T09:30:08.435Z,40.99
2022-08-07T09:33:41.090Z,39.99
2022-08-07T09:37:03.814Z,40.78
2022-08-07T09:40:12.715Z,40.45
2022-08-07T09:43:40.302Z,40.58
2022-08-07T09:47:51.624Z,40.45
2022-08-07T09:51:01.688Z,40.12
2022-08-07T09:54:07.186Z,42.24
2022-08-07T09:57:52.560Z,39.66
2022-08-07T10:01:51.302Z,39.43
2022-08-07T10:05:18.092Z,38.11
2022-08-07T10:09:01.739Z,37.59
2022-08-07T10:12:21.934Z,38.36
2022-08-07T10:15:47.815Z,37.15
2022-08-07T10:19:11.552Z,36.96
2022-08-07T10:22:45.307Z,36.04
2022-08-07T10:26:07.359Z,36.60
2022-08-07T10:29:20.302Z,36.01
2022-08-07T10:32:51.480Z,35.99
2022-08-07T10:36:13.230Z,36.36
2022-08-07T10:39:41.592Z,34.88
2022-08-07T10:43:34.365Z,33.79
2022-08-07T10:47:11.735Z,33.98
2022-08-07T10:50:50.317Z,33.89
2022-08-07T10:54:18.189Z,33.76
2022-08-07T10:57:43.810Z,34.25
2022-08-07T11:01:35.674Z,32.72
2022-08-07T11:05:50.970Z,32.92
2022-08-07T11:09:03.905Z,32.79
2022-08-07T11:12:35.299Z,32.32
2022-08-07T11:15:40.048Z,31.84
2022-08-07T11:18:51.030Z,31.76
2022-08-07T11:22:03.719Z,32.64
2022-08-07T11:25:23.736Z,32.43
2022-08-07T11:28:31.272Z,33.03
2022-08-07T11:31:54.212Z,32.00
2022-08-07T11:34:59.260Z,33.70
2022-08-07T11:38:17.392Z,32.54
2022-08-07T11:42:00.350Z,33.14
2022-08-07T11:44:57.826Z,33.28
2022-08-07T11:48:29.353Z,33.15
2022-08-07T11:51:50.534Z,33.32
2022-08-07T11:55:12.912Z,32.59
2022-08-07T11:58:33.598Z,32.82
2022-08-07T12:02:00.835Z,32.78
2022-08-07T12:05:41.241Z,33.37
2022-08-07T12:08:53.983Z,34.07
2022-08-07T12:12:29.114Z,34.03
2022-08-07T12:15:57.927Z,34.13
2022-08-07T12:19:05.113Z,33.73
2022-08-07T12:22:37.239Z,32.82
2022-08-07T12:26:22.709Z,33.48
2022-08-07T12:29:37.686Z,32.44
2022-08-07T12:32:45.725Z,32.93
2022-08-07T12:35:57.787Z,32.18
2022-08-07T12:39:09.287Z,32.22
2022-08-07T12:42:32.128Z,31.82
2022-08-07T12:45:58.796Z,32.17
2022-08-07T12:49:39.637Z,32.15
2022-08-07T12:52:52.913Z,31.15
2022-08-07T12:56:04.105Z,32.16
2022-08-07T12:59:20.820Z,32.34
2022-08-07T13:02:33.267Z,32.10
2022-08-07T13:06:04.790Z,32.56
2022-08-07T13:10:19.925Z,33.13
2022-08-07T13:13:47.995Z,32.94
2022-08-07T13:17:06.509Z,32.69
2022-08-07T13:20:21.700Z,32.81
2022-08-07T13:24:04.276Z,32.65
2022-08-07T13:27:20.721Z,32.40
2022-08-07T13:30:39.624Z,32.10
2022-08-07T13:34:30.629Z,32.08
2022-08-07T13:37:25.652Z,32.65
2022-08-07T13:40:35.588Z,33.13
2022-08-07T13:43:52.385Z,33.02
2022-08-07T13:46:59.526Z,32.63
2022-08-07T13:50:35.197Z,33.14
2022-08-07T13:53:35.989Z,31.58
2022-08-07T13:57:02.711Z,32.61
2022-08-07T14:00:26.159Z,32.42
2022-08-07T14:04:06.848Z,32.21
2022-08-07T14:06:54.672Z,31.72
2022-08-07T14:10:02.957Z,33.21
2022-08-07T14:13:33.191Z,32.22
2022-08-07T14:16:44.959Z,31.83
2022-08-07T14:20:42.554Z,32.32
2022-08-07T14:24:00.826Z,31.54
2022-08-07T14:27:00.912Z,31.87
2022-08-07T14:33:47.657Z,31.71
2022-08-07T14:36:56.391Z,31.26
2022-08-07T14:40:18.278Z,32.35
2022-08-07T14:43:59.336Z,31.77
2022-08-07T14:50:18.620Z,31.48
2022-08-07T14:54:03.467Z,32.29
2022-08-07T14:56:48.483Z,31.54
2022-08-07T15:00:05.262Z,31.75
2022-08-07T15:03:16.423Z,31.97
2022-08-07T15:06:27.941Z,31.84
2022-08-07T15:12:58.816Z,31.76
2022-08-07T15:16:11.139Z,31.88
2022-08-07T15:19:17.885Z,31.65
2022-08-07T15:22:29.423Z,32.22
2022-08-07T15:25:37.628Z,32.39
2022-08-07T15:28:51.701Z,32.51
2022-08-07T15:32:02.796Z,32.56
2022-08-07T15:35:14.582Z,33.12
2022-08-07T15:38:30.268Z,33.21
2022-08-07T15:42:45.602Z,34.43
2022-08-07T15:45:58.194Z,33.54
2022-08-07T15:52:30.252Z,33.40
2022-08-07T15:55:53.566Z,33.77
2022-08-07T15:59:00.034Z,34.30
2022-08-07T16:02:04.701Z,35.12
2022-08-07T16:05:15.508Z,34.26
2022-08-07T16:08:32.379Z,34.66
2022-08-07T16:11:57.739Z,35.02
2022-08-07T16:15:54.412Z,34.87
2022-08-07T16:19:09.507Z,35.11
2022-08-07T16:23:05.533Z,35.35
2022-08-07T16:26:30.856Z,35.76
2022-08-07T16:30:11.187Z,35.76
2022-08-07T16:34:02.437Z,35.89
2022-08-07T16:37:02.749Z,36.06
2022-08-07T16:41:02.306Z,36.32
2022-08-07T16:45:04.144Z,36.18
2022-08-07T16:48:07.800Z,36.45
2022-08-07T16:52:35.374Z,36.82
2022-08-07T16:56:05.379Z,36.34
2022-08-07T16:59:17.806Z,36.71
2022-08-07T17:02:51.477Z,36.95
2022-08-07T17:06:29.937Z,37.32
2022-08-07T17:10:06.160Z,36.89
2022-08-07T17:13:15.906Z,37.19
2022-08-07T17:16:22.109Z,36.95
2022-08-07T17:20:01.957Z,37.35
2022-08-07T17:23:31.974Z,36.79
2022-08-07T17:27:03.565Z,36.97
2022-08-07T17:30:14.355Z,37.52
2022-08-07T17:34:09.101Z,37.18
2022-08-07T17:36:59.782Z,37.59
2022-08-07T17:40:30.417Z,37.56
2022-08-07T17:44:01.328Z,38.19
2022-08-07T17:47:16.604Z,38.23
2022-08-07T17:50:46.864Z,37.74
2022-08-07T17:54:00.690Z,38.47
2022-08-07T17:57:18.670Z,38.16
2022-08-07T18:00:32.755Z,39.21
2022-08-07T18:04:04.403Z,39.80
2022-08-07T18:07:20.337Z,39.43
2022-08-07T18:11:53.603Z,39.49
2022-08-07T18:14:28.017Z,40.30
2022-08-07T18:18:33.094Z,38.04
2022-08-07T18:21:38.167Z,37.53
2022-08-07T18:24:37.774Z,35.93
2022-08-07T18:28:15.253Z,36.07
2022-08-07T18:31:59.816Z,35.59
2022-08-07T18:35:10.502Z,35.61
2022-08-07T18:38:54.851Z,35.20
2022-08-07T18:42:16.602Z,34.73
2022-08-07T18:45:40.030Z,34.74
2022-08-07T18:50:19.686Z,34.73
2022-08-07T18:52:53.939Z,34.50
2022-08-07T18:56:31.634Z,34.69
2022-08-07T18:59:57.188Z,35.10
2022-08-07T19:03:11.682Z,35.11
2022-08-07T19:06:17.689Z,35.41
2022-08-07T19:09:57.190Z,35.51
2022-08-07T19:13:21.864Z,35.67
2022-08-07T19:17:00.689Z,36.30
2022-08-07T19:20:01.930Z,35.97
2022-08-07T19:23:18.345Z,36.13
2022-08-07T19:26:29.109Z,35.66
2022-08-07T19:31:00.549Z,36.58
2022-08-07T19:33:15.350Z,37.12
2022-08-07T19:36:28.014Z,37.64
2022-08-07T19:39:56.459Z,38.15
2022-08-07T19:42:56.676Z,38.56
2022-08-07T19:46:07.992Z,38.77
2022-08-07T19:49:17.212Z,39.05
2022-08-07T19:52:22.630Z,38.50
2022-08-07T19:55:25.685Z,38.97
2022-08-07T19:58:53.114Z,38.34
2022-08-07T20:01:58.124Z,38.64
2022-08-07T20:05:08.016Z,39.10
2022-08-07T20:08:14.590Z,39.72
2022-08-07T20:11:23.258Z,40.05
2022-08-07T20:14:54.011Z,39.80
2022-08-07T20:18:06.032Z,39.84
2022-08-07T20:21:22.329Z,40.93
2022-08-07T20:24:29.883Z,40.52
2022-08-07T20:27:47.539Z,40.08
2022-08-07T20:30:51.450Z,42.02
2022-08-07T20:34:00.905Z,41.11
2022-08-07T20:37:05.814Z,41.17
2022-08-07T20:40:32.367Z,41.52
2022-08-07T20:43:34.120Z,41.01
2022-08-07T20:46:44.150Z,41.38
2022-08-07T20:50:00.040Z,41.76
2022-08-07T20:53:05.744Z,41.72
2022-08-07T20:56:10.263Z,41.97
2022-08-07T20:59:27.285Z,42.02
2022-08-07T21:03:03.687Z,42.30
2022-08-07T21:06:21.637Z,42.77
2022-08-07T21:09:51.699Z,41.52
2022-08-07T21:12:57.950Z,43.07
2022-08-07T21:16:02.635Z,41.48
2022-08-07T21:19:09.258Z,41.91
2022-08-07T21:22:19.521Z,42.23
2022-08-07T21:25:38.889Z,42.43
2022-08-07T21:29:18.273Z,43.24
2022-08-07T21:32:46.989Z,44.01
2022-08-07T21:36:11.930Z,44.42
2022-08-07T21:39:46.302Z,45.98
2022-08-07T21:43:05.563Z,47.56
2022-08-07T21:46:24.711Z,44.66
2022-08-07T21:50:02.852Z,44.79
2022-08-07T21:53:17.358Z,44.53
2022-08-07T21:56:49.128Z,43.72
2022-08-07T22:00:04.546Z,46.31
2022-08-07T22:03:18.747Z,44.91
2022-08-07T22:06:45.301Z,46.57
2022-08-07T22:09:57.226Z,46.10
2022-08-07T22:13:09.004Z,45.25
2022-08-07T22:16:42.255Z,45.62
2022-08-07T22:19:45.997Z,45.96
2022-08-07T22:23:17.830Z,46.86
2022-08-07T22:26:28.623Z,45.02
2022-08-07T22:29:48.319Z,47.63
2022-08-07T22:33:05.403Z,47.81
2022-08-07T22:36:19.977Z,48.05
2022-08-07T22:39:53.533Z,49.21
2022-08-07T22:43:07.767Z,47.72
2022-08-07T22:47:01.967Z,48.14
2022-08-07T22:50:29.112Z,47.36
2022-08-07T22:54:09.429Z,49.58
2022-08-07T22:57:37.366Z,49.34
2022-08-07T23:00:53.206Z,49.79
2022-08-07T23:04:16.248Z,48.45
2022-08-07T23:07:40.312Z,49.27
2022-08-07T23:11:08.590Z,50.99
2022-08-07T23:14:40.689Z,50.15
2022-08-07T23:17:54.644Z,50.87
2022-08-07T23:21:16.702Z,52.19
2022-08-07T23:24:45.517Z,52.14
2022-08-07T23:28:22.014Z,52.70
2022-08-07T23:32:48.939Z,53.30
2022-08-07T23:35:20.043Z,53.20
2022-08-07T23:38:42.772Z,52.54
2022-08-07T23:42:05.107Z,53.31
2022-08-07T23:46:01.582Z,53.63
2022-08-07T23:49:05.353Z,53.43
2022-08-07T23:53:08.845Z,53.28
2022-08-07T23:55:57.351Z,53.23
